sensor_id;sensor_type;location;lat;lon;timestamp;temperature;humidity
38798;SHT11;24546;52.240;16.826;2022-07-21T00:01:10;24.70;80.30
38798;SHT11;24546;52.240;16.826;2022-07-21T00:06:11;24.70;79.60
38798;SHT11;24546;52.240;16.826;2022-07-21T00:11:12;24.70;80.60
38798;SHT11;24546;52.240;16.826;2022-07-21T00:16:12;24.50;80.90
38798;SHT11;24546;52.240;16.826;2022-07-21T00:21:13;24.50;81.60
38798;SHT11;24546;52.240;16.826;2022-07-21T00:26:14;24.40;81.40
38798;SHT11;24546;52.240;16.826;2022-07-21T00:31:16;24.30;81.80
38798;SHT11;24546;52.240;16.826;2022-07-21T00:36:18;24.30;81.80
38798;SHT11;24546;52.240;16.826;2022-07-21T00:41:19;24.20;82.00
38798;SHT11;24546;52.240;16.826;2022-07-21T00:46:21;24.10;83.20
38798;SHT11;24546;52.240;16.826;2022-07-21T00:51:22;24.00;81.40
38798;SHT11;24546;52.240;16.826;2022-07-21T00:56:23;24.00;81.30
38798;SHT11;24546;52.240;16.826;2022-07-21T01:01:24;23.90;80.80
38798;SHT11;24546;52.240;16.826;2022-07-21T01:06:25;23.90;81.20
38798;SHT11;24546;52.240;16.826;2022-07-21T01:11:26;23.90;81.40
38798;SHT11;24546;52.240;16.826;2022-07-21T01:16:27;23.80;81.60
38798;SHT11;24546;52.240;16.826;2022-07-21T01:21:34;23.80;80.60
38798;SHT11;24546;52.240;16.826;2022-07-21T01:26:49;23.80;81.30
38798;SHT11;24546;52.240;16.826;2022-07-21T01:31:51;23.70;83.70
38798;SHT11;24546;52.240;16.826;2022-07-21T01:36:52;23.70;82.60
38798;SHT11;24546;52.240;16.826;2022-07-21T01:41:53;23.60;81.80
38798;SHT11;24546;52.240;16.826;2022-07-21T01:46:54;23.50;83.80
38798;SHT11;24546;52.240;16.826;2022-07-21T01:51:55;23.50;82.60
38798;SHT11;24546;52.240;16.826;2022-07-21T01:56:55;23.40;82.10
38798;SHT11;24546;52.240;16.826;2022-07-21T02:01:56;23.40;84.40
38798;SHT11;24546;52.240;16.826;2022-07-21T02:06:57;23.30;85.50
38798;SHT11;24546;52.240;16.826;2022-07-21T02:11:58;23.20;84.60
38798;SHT11;24546;52.240;16.826;2022-07-21T02:16:59;23.20;85.80
38798;SHT11;24546;52.240;16.826;2022-07-21T02:22:00;23.10;85.40
38798;SHT11;24546;52.240;16.826;2022-07-21T02:27:01;23.00;85.10
38798;SHT11;24546;52.240;16.826;2022-07-21T02:32:02;23.00;85.60
38798;SHT11;24546;52.240;16.826;2022-07-21T02:37:03;22.80;86.00
38798;SHT11;24546;52.240;16.826;2022-07-21T02:42:05;22.80;86.30
38798;SHT11;24546;52.240;16.826;2022-07-21T02:47:05;22.80;86.60
38798;SHT11;24546;52.240;16.826;2022-07-21T02:52:06;22.70;87.30
38798;SHT11;24546;52.240;16.826;2022-07-21T02:57:07;22.60;86.50
38798;SHT11;24546;52.240;16.826;2022-07-21T03:02:08;22.60;86.90
38798;SHT11;24546;52.240;16.826;2022-07-21T03:07:09;22.50;87.10
38798;SHT11;24546;52.240;16.826;2022-07-21T03:12:10;22.50;86.60
38798;SHT11;24546;52.240;16.826;2022-07-21T03:17:11;22.40;86.50
38798;SHT11;24546;52.240;16.826;2022-07-21T03:22:11;22.40;87.60
38798;SHT11;24546;52.240;16.826;2022-07-21T03:27:12;22.40;88.70
38798;SHT11;24546;52.240;16.826;2022-07-21T03:32:13;22.40;87.10
38798;SHT11;24546;52.240;16.826;2022-07-21T03:37:14;22.40;86.30
38798;SHT11;24546;52.240;16.826;2022-07-21T03:42:15;22.40;86.00
38798;SHT11;24546;52.240;16.826;2022-07-21T03:47:16;22.50;87.00
38798;SHT11;24546;52.240;16.826;2022-07-21T03:52:17;22.50;88.30
38798;SHT11;24546;52.240;16.826;2022-07-21T03:57:18;22.60;87.90
38798;SHT11;24546;52.240;16.826;2022-07-21T04:02:19;22.60;88.70
38798;SHT11;24546;52.240;16.826;2022-07-21T04:07:19;22.60;88.40
38798;SHT11;24546;52.240;16.826;2022-07-21T04:12:27;22.70;88.80
38798;SHT11;24546;52.240;16.826;2022-07-21T04:17:28;22.80;87.50
38798;SHT11;24546;52.240;16.826;2022-07-21T04:22:30;23.00;88.80
38798;SHT11;24546;52.240;16.826;2022-07-21T04:27:32;23.10;87.80
38798;SHT11;24546;52.240;16.826;2022-07-21T04:32:33;23.30;87.80
38798;SHT11;24546;52.240;16.826;2022-07-21T04:37:34;23.60;87.50
38798;SHT11;24546;52.240;16.826;2022-07-21T04:42:36;23.80;87.20
38798;SHT11;24546;52.240;16.826;2022-07-21T04:47:48;24.10;85.20
38798;SHT11;24546;52.240;16.826;2022-07-21T04:52:50;24.40;85.60
38798;SHT11;24546;52.240;16.826;2022-07-21T04:57:52;24.70;83.70
38798;SHT11;24546;52.240;16.826;2022-07-21T05:02:54;25.00;82.90
38798;SHT11;24546;52.240;16.826;2022-07-21T05:07:55;25.20;81.40
38798;SHT11;24546;52.240;16.826;2022-07-21T05:12:56;25.60;82.80
38798;SHT11;24546;52.240;16.826;2022-07-21T05:17:57;25.80;81.60
38798;SHT11;24546;52.240;16.826;2022-07-21T05:22:58;26.10;83.10
38798;SHT11;24546;52.240;16.826;2022-07-21T05:27:58;26.50;80.50
38798;SHT11;24546;52.240;16.826;2022-07-21T05:32:59;26.90;80.50
38798;SHT11;24546;52.240;16.826;2022-07-21T05:38:00;27.20;80.20
38798;SHT11;24546;52.240;16.826;2022-07-21T05:43:01;27.50;80.60
38798;SHT11;24546;52.240;16.826;2022-07-21T05:48:02;27.90;79.60
38798;SHT11;24546;52.240;16.826;2022-07-21T05:53:03;28.30;80.40
38798;SHT11;24546;52.240;16.826;2022-07-21T05:58:04;28.50;79.10
38798;SHT11;24546;52.240;16.826;2022-07-21T06:03:05;28.80;77.00
38798;SHT11;24546;52.240;16.826;2022-07-21T06:08:06;29.20;77.10
38798;SHT11;24546;52.240;16.826;2022-07-21T06:13:06;29.50;75.50
38798;SHT11;24546;52.240;16.826;2022-07-21T06:18:07;29.50;72.90
38798;SHT11;24546;52.240;16.826;2022-07-21T06:23:08;29.90;72.70
38798;SHT11;24546;52.240;16.826;2022-07-21T06:28:09;30.30;72.90
38798;SHT11;24546;52.240;16.826;2022-07-21T06:33:10;30.60;73.30
38798;SHT11;24546;52.240;16.826;2022-07-21T06:38:11;30.70;74.10
38798;SHT11;24546;52.240;16.826;2022-07-21T06:43:12;31.20;73.70
38798;SHT11;24546;52.240;16.826;2022-07-21T06:48:13;31.40;72.70
38798;SHT11;24546;52.240;16.826;2022-07-21T06:53:14;31.90;72.50
38798;SHT11;24546;52.240;16.826;2022-07-21T06:58:17;32.50;71.10
38798;SHT11;24546;52.240;16.826;2022-07-21T07:03:19;32.70;70.40
38798;SHT11;24546;52.240;16.826;2022-07-21T07:08:20;33.00;69.10
38798;SHT11;24546;52.240;16.826;2022-07-21T07:13:21;33.40;67.40
38798;SHT11;24546;52.240;16.826;2022-07-21T07:18:22;33.70;66.80
38798;SHT11;24546;52.240;16.826;2022-07-21T07:23:24;33.80;66.00
38798;SHT11;24546;52.240;16.826;2022-07-21T07:28:26;33.70;64.50
38798;SHT11;24546;52.240;16.826;2022-07-21T07:33:26;34.00;65.50
38798;SHT11;24546;52.240;16.826;2022-07-21T07:38:27;34.10;64.30
38798;SHT11;24546;52.240;16.826;2022-07-21T07:43:28;34.50;63.70
38798;SHT11;24546;52.240;16.826;2022-07-21T07:48:29;34.50;64.20
38798;SHT11;24546;52.240;16.826;2022-07-21T07:53:32;34.90;63.50
38798;SHT11;24546;52.240;16.826;2022-07-21T07:58:33;35.60;65.40
38798;SHT11;24546;52.240;16.826;2022-07-21T08:03:34;35.70;60.80
38798;SHT11;24546;52.240;16.826;2022-07-21T08:08:36;35.60;61.80
38798;SHT11;24546;52.240;16.826;2022-07-21T08:13:37;35.90;59.50
38798;SHT11;24546;52.240;16.826;2022-07-21T08:18:38;36.40;62.70
38798;SHT11;24546;52.240;16.826;2022-07-21T08:23:39;37.00;60.60
38798;SHT11;24546;52.240;16.826;2022-07-21T08:28:40;36.80;60.00
38798;SHT11;24546;52.240;16.826;2022-07-21T08:33:41;36.90;58.10
38798;SHT11;24546;52.240;16.826;2022-07-21T08:38:42;37.10;60.50
38798;SHT11;24546;52.240;16.826;2022-07-21T08:43:43;37.40;59.20
38798;SHT11;24546;52.240;16.826;2022-07-21T08:48:44;37.80;58.70
38798;SHT11;24546;52.240;16.826;2022-07-21T08:53:48;37.70;58.80
38798;SHT11;24546;52.240;16.826;2022-07-21T08:58:49;38.20;56.10
38798;SHT11;24546;52.240;16.826;2022-07-21T09:03:51;38.10;55.40
38798;SHT11;24546;52.240;16.826;2022-07-21T09:08:52;37.90;56.70
38798;SHT11;24546;52.240;16.826;2022-07-21T09:14:09;38.00;57.50
38798;SHT11;24546;52.240;16.826;2022-07-21T09:19:29;37.70;56.20
38798;SHT11;24546;52.240;16.826;2022-07-21T09:24:37;37.60;54.70
38798;SHT11;24546;52.240;16.826;2022-07-21T09:29:53;37.90;55.50
38798;SHT11;24546;52.240;16.826;2022-07-21T09:35:08;38.60;55.00
38798;SHT11;24546;52.240;16.826;2022-07-21T09:40:15;38.80;54.00
38798;SHT11;24546;52.240;16.826;2022-07-21T09:45:17;38.80;54.30
38798;SHT11;24546;52.240;16.826;2022-07-21T09:50:18;39.00;53.60
38798;SHT11;24546;52.240;16.826;2022-07-21T09:55:19;39.00;54.60
38798;SHT11;24546;52.240;16.826;2022-07-21T10:00:21;39.30;54.00
38798;SHT11;24546;52.240;16.826;2022-07-21T10:05:22;39.30;53.20
38798;SHT11;24546;52.240;16.826;2022-07-21T10:10:22;39.30;53.90
38798;SHT11;24546;52.240;16.826;2022-07-21T10:15:23;39.30;53.80
38798;SHT11;24546;52.240;16.826;2022-07-21T10:20:28;39.40;53.90
38798;SHT11;24546;52.240;16.826;2022-07-21T10:25:30;39.20;51.00
38798;SHT11;24546;52.240;16.826;2022-07-21T10:30:39;39.20;53.70
38798;SHT11;24546;52.240;16.826;2022-07-21T10:35:43;39.80;53.90
38798;SHT11;24546;52.240;16.826;2022-07-21T10:40:44;40.00;51.60
38798;SHT11;24546;52.240;16.826;2022-07-21T10:45:45;39.90;52.40
38798;SHT11;24546;52.240;16.826;2022-07-21T10:50:50;39.90;53.90
38798;SHT11;24546;52.240;16.826;2022-07-21T10:55:53;40.10;52.70
38798;SHT11;24546;52.240;16.826;2022-07-21T11:00:58;40.60;52.60
38798;SHT11;24546;52.240;16.826;2022-07-21T11:11:12;40.30;50.00
38798;SHT11;24546;52.240;16.826;2022-07-21T11:16:13;40.50;50.30
38798;SHT11;24546;52.240;16.826;2022-07-21T11:21:16;40.30;50.40
38798;SHT11;24546;52.240;16.826;2022-07-21T11:26:19;40.60;49.50
38798;SHT11;24546;52.240;16.826;2022-07-21T11:31:20;40.60;49.00
38798;SHT11;24546;52.240;16.826;2022-07-21T11:36:29;40.50;49.10
38798;SHT11;24546;52.240;16.826;2022-07-21T11:41:31;40.60;49.70
38798;SHT11;24546;52.240;16.826;2022-07-21T11:52:08;40.10;49.50
38798;SHT11;24546;52.240;16.826;2022-07-21T11:57:08;40.70;49.30
38798;SHT11;24546;52.240;16.826;2022-07-21T12:02:14;40.90;49.60
38798;SHT11;24546;52.240;16.826;2022-07-21T12:07:26;41.10;49.00
38798;SHT11;24546;52.240;16.826;2022-07-21T12:17:44;41.10;46.60
38798;SHT11;24546;52.240;16.826;2022-07-21T12:22:46;41.10;47.50
38798;SHT11;24546;52.240;16.826;2022-07-21T12:27:47;41.20;50.10
38798;SHT11;24546;52.240;16.826;2022-07-21T12:32:50;41.20;48.50
38798;SHT11;24546;52.240;16.826;2022-07-21T12:43:12;40.60;49.20
38798;SHT11;24546;52.240;16.826;2022-07-21T12:48:17;40.70;48.70
38798;SHT11;24546;52.240;16.826;2022-07-21T12:53:18;41.00;49.10
38798;SHT11;24546;52.240;16.826;2022-07-21T12:58:19;40.70;46.70
38798;SHT11;24546;52.240;16.826;2022-07-21T13:03:21;40.90;48.00
38798;SHT11;24546;52.240;16.826;2022-07-21T13:08:22;41.00;50.30
38798;SHT11;24546;52.240;16.826;2022-07-21T13:13:24;41.30;48.40
38798;SHT11;24546;52.240;16.826;2022-07-21T13:18:25;41.10;47.50
38798;SHT11;24546;52.240;16.826;2022-07-21T13:23:26;40.90;47.00
38798;SHT11;24546;52.240;16.826;2022-07-21T13:28:27;40.90;48.00
38798;SHT11;24546;52.240;16.826;2022-07-21T13:33:27;40.90;47.20
38798;SHT11;24546;52.240;16.826;2022-07-21T13:38:30;40.40;45.80
38798;SHT11;24546;52.240;16.826;2022-07-21T13:43:31;40.10;46.70
38798;SHT11;24546;52.240;16.826;2022-07-21T13:48:31;40.30;48.90
38798;SHT11;24546;52.240;16.826;2022-07-21T13:53:32;40.90;48.10
38798;SHT11;24546;52.240;16.826;2022-07-21T13:58:33;41.00;48.40
38798;SHT11;24546;52.240;16.826;2022-07-21T14:03:35;41.40;48.60
38798;SHT11;24546;52.240;16.826;2022-07-21T14:08:36;40.90;46.20
38798;SHT11;24546;52.240;16.826;2022-07-21T14:13:37;40.90;48.60
38798;SHT11;24546;52.240;16.826;2022-07-21T14:18:38;41.30;47.00
38798;SHT11;24546;52.240;16.826;2022-07-21T14:23:39;41.10;46.00
38798;SHT11;24546;52.240;16.826;2022-07-21T14:28:40;40.90;46.70
38798;SHT11;24546;52.240;16.826;2022-07-21T14:33:41;40.90;46.50
38798;SHT11;24546;52.240;16.826;2022-07-21T14:38:42;41.10;46.30
38798;SHT11;24546;52.240;16.826;2022-07-21T14:43:43;41.00;46.80
38798;SHT11;24546;52.240;16.826;2022-07-21T14:48:47;41.30;47.00
38798;SHT11;24546;52.240;16.826;2022-07-21T14:53:47;41.40;46.10
38798;SHT11;24546;52.240;16.826;2022-07-21T14:58:49;41.40;46.30
38798;SHT11;24546;52.240;16.826;2022-07-21T15:03:49;41.40;46.30
38798;SHT11;24546;52.240;16.826;2022-07-21T15:08:50;41.30;45.20
38798;SHT11;24546;52.240;16.826;2022-07-21T15:13:51;41.00;45.00
38798;SHT11;24546;52.240;16.826;2022-07-21T15:18:52;40.80;46.40
38798;SHT11;24546;52.240;16.826;2022-07-21T15:23:53;40.30;46.70
38798;SHT11;24546;52.240;16.826;2022-07-21T15:28:54;40.00;45.60
38798;SHT11;24546;52.240;16.826;2022-07-21T15:33:55;39.80;45.00
38798;SHT11;24546;52.240;16.826;2022-07-21T15:38:56;40.30;45.50
38798;SHT11;24546;52.240;16.826;2022-07-21T15:43:57;40.90;46.70
38798;SHT11;24546;52.240;16.826;2022-07-21T15:48:59;41.70;44.90
38798;SHT11;24546;52.240;16.826;2022-07-21T15:54:00;40.80;45.10
38798;SHT11;24546;52.240;16.826;2022-07-21T15:59:00;39.50;44.40
38798;SHT11;24546;52.240;16.826;2022-07-21T16:04:20;38.90;47.40
38798;SHT11;24546;52.240;16.826;2022-07-21T16:09:21;38.60;45.80
38798;SHT11;24546;52.240;16.826;2022-07-21T16:14:22;38.20;46.90
38798;SHT11;24546;52.240;16.826;2022-07-21T16:19:24;37.90;48.90
38798;SHT11;24546;52.240;16.826;2022-07-21T16:24:25;37.40;47.10
38798;SHT11;24546;52.240;16.826;2022-07-21T16:29:26;36.90;47.30
38798;SHT11;24546;52.240;16.826;2022-07-21T16:34:30;36.90;49.50
38798;SHT11;24546;52.240;16.826;2022-07-21T16:39:34;36.70;49.70
38798;SHT11;24546;52.240;16.826;2022-07-21T16:44:35;36.70;54.90
38798;SHT11;24546;52.240;16.826;2022-07-21T16:49:39;36.60;55.70
38798;SHT11;24546;52.240;16.826;2022-07-21T16:54:39;36.00;54.00
38798;SHT11;24546;52.240;16.826;2022-07-21T16:59:40;35.30;55.80
38798;SHT11;24546;52.240;16.826;2022-07-21T17:04:41;34.70;57.20
38798;SHT11;24546;52.240;16.826;2022-07-21T17:09:44;34.50;57.20
38798;SHT11;24546;52.240;16.826;2022-07-21T17:14:48;34.30;58.00
38798;SHT11;24546;52.240;16.826;2022-07-21T17:19:49;34.10;58.40
38798;SHT11;24546;52.240;16.826;2022-07-21T17:24:50;33.70;58.60
38798;SHT11;24546;52.240;16.826;2022-07-21T17:29:51;33.50;58.80
38798;SHT11;24546;52.240;16.826;2022-07-21T17:34:52;33.20;59.60
38798;SHT11;24546;52.240;16.826;2022-07-21T17:39:53;33.00;60.30
38798;SHT11;24546;52.240;16.826;2022-07-21T17:44:54;33.10;58.90
38798;SHT11;24546;52.240;16.826;2022-07-21T17:49:55;33.20;59.60
38798;SHT11;24546;52.240;16.826;2022-07-21T17:54:56;33.10;59.70
38798;SHT11;24546;52.240;16.826;2022-07-21T17:59:57;33.00;59.90
38798;SHT11;24546;52.240;16.826;2022-07-21T18:04:58;32.80;60.50
38798;SHT11;24546;52.240;16.826;2022-07-21T18:10:00;32.60;60.60
38798;SHT11;24546;52.240;16.826;2022-07-21T18:15:19;32.40;61.20
38798;SHT11;24546;52.240;16.826;2022-07-21T18:20:20;32.40;61.40
38798;SHT11;24546;52.240;16.826;2022-07-21T18:25:24;32.20;61.40
38798;SHT11;24546;52.240;16.826;2022-07-21T18:30:25;32.30;61.70
38798;SHT11;24546;52.240;16.826;2022-07-21T18:35:26;32.10;62.00
38798;SHT11;24546;52.240;16.826;2022-07-21T18:40:27;31.90;62.50
38798;SHT11;24546;52.240;16.826;2022-07-21T18:45:30;31.70;62.80
38798;SHT11;24546;52.240;16.826;2022-07-21T18:50:32;31.40;63.20
38798;SHT11;24546;52.240;16.826;2022-07-21T18:55:33;31.20;64.50
38798;SHT11;24546;52.240;16.826;2022-07-21T19:00:34;30.90;64.30
38798;SHT11;24546;52.240;16.826;2022-07-21T19:05:35;30.70;64.80
38798;SHT11;24546;52.240;16.826;2022-07-21T19:10:38;30.70;64.60
38798;SHT11;24546;52.240;16.826;2022-07-21T19:15:39;30.80;64.20
38798;SHT11;24546;52.240;16.826;2022-07-21T19:20:40;30.70;64.50
38798;SHT11;24546;52.240;16.826;2022-07-21T19:25:41;30.90;64.50
38798;SHT11;24546;52.240;16.826;2022-07-21T19:30:42;30.80;64.60
38798;SHT11;24546;52.240;16.826;2022-07-21T19:35:43;30.70;65.40
38798;SHT11;24546;52.240;16.826;2022-07-21T19:40:44;30.40;65.60
38798;SHT11;24546;52.240;16.826;2022-07-21T19:45:45;30.40;65.40
38798;SHT11;24546;52.240;16.826;2022-07-21T19:50:46;30.20;66.60
38798;SHT11;24546;52.240;16.826;2022-07-21T19:55:47;30.20;66.60
38798;SHT11;24546;52.240;16.826;2022-07-21T20:00:48;30.00;66.60
38798;SHT11;24546;52.240;16.826;2022-07-21T20:05:50;29.70;67.30
38798;SHT11;24546;52.240;16.826;2022-07-21T20:10:51;29.30;68.40
38798;SHT11;24546;52.240;16.826;2022-07-21T20:15:51;28.80;69.70
38798;SHT11;24546;52.240;16.826;2022-07-21T20:20:52;28.80;69.80
38798;SHT11;24546;52.240;16.826;2022-07-21T20:25:53;28.60;70.00
38798;SHT11;24546;52.240;16.826;2022-07-21T20:30:54;28.80;70.00
38798;SHT11;24546;52.240;16.826;2022-07-21T20:35:55;28.80;69.40
38798;SHT11;24546;52.240;16.826;2022-07-21T20:40:56;28.50;70.20
38798;SHT11;24546;52.240;16.826;2022-07-21T20:45:57;28.20;71.00
38798;SHT11;24546;52.240;16.826;2022-07-21T20:50:58;28.20;71.00
38798;SHT11;24546;52.240;16.826;2022-07-21T20:55:59;28.20;71.40
38798;SHT11;24546;52.240;16.826;2022-07-21T21:01:00;28.00;71.70
38798;SHT11;24546;52.240;16.826;2022-07-21T21:06:01;27.90;72.20
38798;SHT11;24546;52.240;16.826;2022-07-21T21:11:02;27.90;73.10
38798;SHT11;24546;52.240;16.826;2022-07-21T21:16:04;27.90;73.30
38798;SHT11;24546;52.240;16.826;2022-07-21T21:21:05;27.90;72.90
38798;SHT11;24546;52.240;16.826;2022-07-21T21:26:06;27.80;72.60
38798;SHT11;24546;52.240;16.826;2022-07-21T21:31:08;28.00;72.40
38798;SHT11;24546;52.240;16.826;2022-07-21T21:36:09;27.90;72.80
38798;SHT11;24546;52.240;16.826;2022-07-21T21:41:09;27.60;73.70
38798;SHT11;24546;52.240;16.826;2022-07-21T21:46:10;27.50;74.40
38798;SHT11;24546;52.240;16.826;2022-07-21T21:51:11;27.50;74.20
38798;SHT11;24546;52.240;16.826;2022-07-21T21:56:12;27.40;73.80
38798;SHT11;24546;52.240;16.826;2022-07-21T22:01:14;27.40;74.50
38798;SHT11;24546;52.240;16.826;2022-07-21T22:06:15;27.30;75.40
38798;SHT11;24546;52.240;16.826;2022-07-21T22:11:16;27.10;75.50
38798;SHT11;24546;52.240;16.826;2022-07-21T22:16:17;27.10;76.00
38798;SHT11;24546;52.240;16.826;2022-07-21T22:21:17;27.20;76.30
38798;SHT11;24546;52.240;16.826;2022-07-21T22:26:19;26.90;76.00
38798;SHT11;24546;52.240;16.826;2022-07-21T22:31:20;26.90;76.50
38798;SHT11;24546;52.240;16.826;2022-07-21T22:36:21;26.90;77.30
38798;SHT11;24546;52.240;16.826;2022-07-21T22:41:22;26.60;77.80
38798;SHT11;24546;52.240;16.826;2022-07-21T22:46:23;26.60;77.40
38798;SHT11;24546;52.240;16.826;2022-07-21T22:51:24;26.70;78.00
38798;SHT11;24546;52.240;16.826;2022-07-21T22:56:25;26.70;78.20
38798;SHT11;24546;52.240;16.826;2022-07-21T23:01:26;26.60;78.00
38798;SHT11;24546;52.240;16.826;2022-07-21T23:06:27;26.50;78.70
38798;SHT11;24546;52.240;16.826;2022-07-21T23:11:28;26.50;78.90
38798;SHT11;24546;52.240;16.826;2022-07-21T23:16:28;26.40;78.90
38798;SHT11;24546;52.240;16.826;2022-07-21T23:21:29;26.50;79.70
38798;SHT11;24546;52.240;16.826;2022-07-21T23:26:32;26.50;79.60
38798;SHT11;24546;52.240;16.826;2022-07-21T23:31:33;26.50;80.80
38798;SHT11;24546;52.240;16.826;2022-07-21T23:36:34;26.50;79.80
38798;SHT11;24546;52.240;16.826;2022-07-21T23:41:35;26.40;80.40
38798;SHT11;24546;52.240;16.826;2022-07-21T23:46:35;26.30;81.40
38798;SHT11;24546;52.240;16.826;2022-07-21T23:51:36;26.20;81.10
38798;SHT11;24546;52.240;16.826;2022-07-21T23:56:37;26.10;81.50
